Time;durP1;ratioP1;P1;durP2;ratioP2;P2;SDS_P1;SDS_P2;PMS_P1;PMS_P2;Temp;Humidity;BMP_temperature;BMP_pressure;BME280_temperature;BME280_humidity;BME280_pressure;Samples;Min_cycle;Max_cycle;Signal;HPM_P1;HPM_P2
2023/09/15 00:00:43;;;;;;;1.90;0.10;;;;;;;16.55;100.00;100972.81;4992167;28;20476;-64
2023/09/15 00:03:08;;;;;;;0.10;0.00;;;;;;;16.59;100.00;100971.50;4990741;28;20041;-64
2023/09/15 00:05:33;;;;;;;0.20;0.10;;;;;;;16.68;100.00;100974.94;4990322;28;20050;-65
2023/09/15 00:08:04;;;;;;;0.00;0.00;;;;;;;16.73;100.00;100964.72;4989701;28;20057;-65
2023/09/15 00:10:29;;;;;;;0.05;0.00;;;;;;;16.74;100.00;100962.91;4989749;28;20035;-64
2023/09/15 00:12:55;;;;;;;0.00;0.00;;;;;;;16.74;100.00;100963.72;4988940;28;20054;-65
2023/09/15 00:15:21;;;;;;;0.00;0.00;;;;;;;16.70;100.00;100959.81;4991707;28;20385;-65
2023/09/15 00:17:47;;;;;;;0.00;0.00;;;;;;;16.61;100.00;100958.16;4990418;28;20070;-65
2023/09/15 00:20:13;;;;;;;0.00;0.00;;;;;;;16.64;100.00;100957.84;4989626;28;20467;-65
2023/09/15 00:22:51;;;;;;;0.20;0.13;;;;;;;16.72;100.00;100959.63;4990898;28;20120;-65
2023/09/15 00:25:20;;;;;;;0.20;0.03;;;;;;;16.61;100.00;100958.16;4990003;28;20538;-65
2023/09/15 00:27:47;;;;;;;0.00;0.00;;;;;;;16.66;100.00;100958.50;4988965;28;20547;-65
2023/09/15 00:30:13;;;;;;;0.95;0.00;;;;;;;16.71;100.00;100956.19;4990534;28;20034;-65
2023/09/15 00:32:39;;;;;;;0.00;0.00;;;;;;;16.73;100.00;100948.94;4991285;28;20503;-65
2023/09/15 00:35:05;;;;;;;0.28;0.13;;;;;;;16.77;100.00;100949.41;4991701;28;20133;-65
2023/09/15 00:37:31;;;;;;;0.00;0.00;;;;;;;16.76;100.00;100956.47;4992620;28;20057;-65
2023/09/15 00:39:57;;;;;;;0.00;0.00;;;;;;;16.74;100.00;100949.75;4991236;28;20054;-65
2023/09/15 00:42:23;;;;;;;0.10;0.00;;;;;;;16.74;100.00;100955.03;4989811;28;20030;-66
2023/09/15 00:44:48;;;;;;;0.00;0.00;;;;;;;16.73;100.00;100950.75;4989209;28;20031;-65
2023/09/15 00:47:15;;;;;;;0.00;0.00;;;;;;;16.75;100.00;100959.28;4992088;28;20034;-65
2023/09/15 00:49:41;;;;;;;0.00;0.00;;;;;;;16.79;100.00;100947.44;4991580;28;20045;-65
2023/09/15 00:52:07;;;;;;;0.00;0.00;;;;;;;16.77;100.00;100944.97;4988419;28;20034;-65
2023/09/15 00:54:33;;;;;;;0.10;0.00;;;;;;;16.75;100.00;100949.59;4983969;28;20053;-67
2023/09/15 00:56:59;;;;;;;0.00;0.00;;;;;;;16.74;100.00;100953.22;4986587;28;20034;-68
2023/09/15 00:59:25;;;;;;;0.00;0.00;;;;;;;16.75;100.00;100956.66;4988965;28;20069;-65
2023/09/15 01:01:51;;;;;;;0.00;0.00;;;;;;;16.72;100.00;100957.81;4989965;28;20484;-65
2023/09/15 01:04:17;;;;;;;0.00;0.00;;;;;;;16.71;100.00;100950.09;4989069;28;20092;-65
2023/09/15 01:06:45;;;;;;;0.35;0.00;;;;;;;16.67;100.00;100952.25;4991699;28;20480;-65
2023/09/15 01:09:11;;;;;;;0.00;0.00;;;;;;;16.67;100.00;100948.81;4990497;28;20120;-65
2023/09/15 01:11:36;;;;;;;0.00;0.00;;;;;;;16.64;100.00;100952.59;4987114;28;20116;-65
2023/09/15 01:14:02;;;;;;;0.28;0.08;;;;;;;16.57;100.00;100949.78;4990379;28;20042;-65
2023/09/15 01:16:38;;;;;;;0.00;0.00;;;;;;;16.57;100.00;100946.34;4989155;28;20034;-65
2023/09/15 01:19:39;;;;;;;0.00;0.00;;;;;;;16.59;100.00;100949.63;4989767;28;20511;-65
2023/09/15 01:22:17;;;;;;;0.00;0.00;;;;;;;16.59;100.00;100944.38;4987557;28;20504;-65
2023/09/15 01:25:01;;;;;;;0.00;0.00;;;;;;;16.56;100.00;100952.59;4989949;28;20049;-65
2023/09/15 01:28:07;;;;;;;0.00;0.00;;;;;;;16.63;100.00;100950.09;4988519;28;20576;-65
2023/09/15 01:30:33;;;;;;;;;;;;;;;16.56;100.00;100957.84;4987120;28;20031;-65
2023/09/15 01:33:01;;;;;;;0.03;0.00;;;;;;;16.58;100.00;100955.88;4988556;28;19956;-65
2023/09/15 01:35:26;;;;;;;0.00;0.00;;;;;;;16.60;100.00;100959.97;4983308;28;20038;-65
2023/09/15 01:37:51;;;;;;;0.00;0.00;;;;;;;16.59;100.00;100960.97;4987438;28;20108;-66
2023/09/15 01:40:17;;;;;;;0.00;0.00;;;;;;;16.57;100.00;100956.88;4988796;28;20030;-67
2023/09/15 01:42:45;;;;;;;0.00;0.00;;;;;;;16.54;100.00;100967.75;4988099;28;20133;-68
2023/09/15 01:45:11;;;;;;;0.00;0.00;;;;;;;16.49;100.00;100965.63;4986628;28;20046;-67
2023/09/15 01:47:37;;;;;;;0.70;0.00;;;;;;;16.46;100.00;100958.09;4986431;28;20044;-68
2023/09/15 01:50:05;;;;;;;0.15;0.00;;;;;;;16.44;100.00;100954.00;4986174;28;20070;-68
2023/09/15 01:52:30;;;;;;;0.10;0.00;;;;;;;16.30;100.00;100960.78;4986356;28;20038;-68
2023/09/15 01:54:56;;;;;;;0.00;0.00;;;;;;;16.31;100.00;100953.69;4985785;28;20369;-66
2023/09/15 01:57:22;;;;;;;0.00;0.00;;;;;;;16.39;100.00;100953.69;4989343;28;20048;-65
2023/09/15 01:59:48;;;;;;;0.30;0.10;;;;;;;16.48;100.00;100958.75;4986760;28;20114;-65
2023/09/15 02:02:13;;;;;;;0.10;0.00;;;;;;;16.53;100.00;100947.72;4983809;28;20142;-65
2023/09/15 02:04:40;;;;;;;0.20;0.00;;;;;;;16.55;100.00;100943.06;4985100;28;20050;-65
2023/09/15 02:07:05;;;;;;;0.10;0.00;;;;;;;16.53;100.00;100948.53;4990473;28;20452;-65
2023/09/15 02:09:31;;;;;;;0.00;0.00;;;;;;;16.55;100.00;100953.59;4988900;28;20038;-65
2023/09/15 02:11:56;;;;;;;0.00;0.00;;;;;;;16.47;100.00;100953.66;4986499;28;20109;-65
2023/09/15 02:14:22;;;;;;;0.10;0.00;;;;;;;16.42;100.00;100942.81;4988074;28;20032;-65
2023/09/15 02:16:47;;;;;;;0.00;0.00;;;;;;;16.45;100.00;100943.31;4986233;28;20039;-65
2023/09/15 02:19:13;;;;;;;0.00;0.00;;;;;;;16.42;100.00;100943.63;4988896;28;20047;-66
2023/09/15 02:21:38;;;;;;;0.00;0.00;;;;;;;16.42;100.00;100948.09;4987963;28;20133;-65
2023/09/15 02:24:04;;;;;;;0.00;0.00;;;;;;;16.41;100.00;100946.44;4985520;28;20041;-65
2023/09/15 02:26:30;;;;;;;0.55;0.10;;;;;;;16.34;100.00;100954.19;4988230;28;20543;-65
2023/09/15 02:28:55;;;;;;;0.30;0.00;;;;;;;16.33;100.00;100946.47;4987301;28;20038;-65
2023/09/15 02:31:20;;;;;;;0.00;0.00;;;;;;;16.33;100.00;100943.84;4988795;28;20034;-65
2023/09/15 02:33:46;;;;;;;0.00;0.00;;;;;;;16.33;100.00;100947.28;4984110;28;20475;-66
2023/09/15 02:36:11;;;;;;;0.00;0.00;;;;;;;16.33;100.00;100943.84;4990328;28;20096;-65
2023/09/15 02:38:37;;;;;;;0.08;0.08;;;;;;;16.30;100.00;100947.63;4988475;28;20058;-65
2023/09/15 02:41:03;;;;;;;0.10;0.00;;;;;;;16.26;100.00;100955.03;4988368;28;20041;-65
2023/09/15 02:43:28;;;;;;;0.20;0.00;;;;;;;16.21;100.00;100946.84;4982378;28;20030;-65
2023/09/15 02:45:54;;;;;;;0.00;0.00;;;;;;;16.21;100.00;100946.84;4984838;28;20108;-65
2023/09/15 02:48:19;;;;;;;0.00;0.00;;;;;;;16.22;100.00;100953.72;4984920;28;20066;-65
2023/09/15 02:50:45;;;;;;;0.00;0.00;;;;;;;16.22;100.00;100953.72;4985929;28;20058;-66
2023/09/15 02:53:11;;;;;;;0.00;0.00;;;;;;;16.17;100.00;100947.34;4989732;28;20113;-65
2023/09/15 02:55:39;;;;;;;0.00;0.00;;;;;;;16.16;100.00;100949.13;4987291;28;20038;-66
2023/09/15 02:58:05;;;;;;;0.00;0.00;;;;;;;16.20;100.00;100953.06;4988852;28;20053;-65
2023/09/15 03:00:31;;;;;;;0.00;0.00;;;;;;;16.07;100.00;100955.41;4987907;28;20054;-65
2023/09/15 03:02:57;;;;;;;0.00;0.00;;;;;;;16.03;100.00;100953.31;4984256;28;20065;-65
2023/09/15 03:05:22;;;;;;;0.00;0.00;;;;;;;16.08;100.00;100953.59;4987570;28;20061;-65
2023/09/15 03:07:48;;;;;;;0.00;0.00;;;;;;;16.07;100.00;100958.03;4987157;28;20045;-65
2023/09/15 03:10:14;;;;;;;0.10;0.00;;;;;;;16.07;100.00;100954.63;4983521;28;20442;-65
2023/09/15 03:12:40;;;;;;;0.00;0.00;;;;;;;16.13;100.00;100949.47;4988546;28;20463;-65
2023/09/15 03:15:08;;;;;;;0.00;0.00;;;;;;;16.10;100.00;100949.00;4987598;28;20480;-65
2023/09/15 03:17:35;;;;;;;0.73;0.00;;;;;;;16.10;100.00;100943.75;4973920;28;20500;-65
2023/09/15 03:20:00;;;;;;;0.00;0.00;;;;;;;16.14;100.00;100935.34;4985685;28;20172;-65
2023/09/15 03:22:27;;;;;;;0.05;0.00;;;;;;;16.13;100.00;100932.88;4987167;28;20121;-65
2023/09/15 03:24:54;;;;;;;0.00;0.00;;;;;;;16.05;100.00;100935.56;4982822;28;20035;-65
2023/09/15 03:27:20;;;;;;;0.75;0.03;;;;;;;16.09;100.00;100932.41;4985915;28;20037;-65
2023/09/15 03:29:46;;;;;;;0.00;0.00;;;;;;;16.12;100.00;100939.94;4987814;28;20081;-65
2023/09/15 03:32:11;;;;;;;0.10;0.00;;;;;;;16.13;100.00;100938.97;4988421;28;20038;-65
2023/09/15 03:34:38;;;;;;;0.75;0.10;;;;;;;16.14;100.00;100932.72;4989001;28;20156;-65
2023/09/15 03:37:04;;;;;;;0.00;0.00;;;;;;;16.13;100.00;100933.72;4987145;28;20038;-65
2023/09/15 03:39:29;;;;;;;0.00;0.00;;;;;;;16.16;100.00;100933.38;4986210;28;20039;-65
2023/09/15 03:41:55;;;;;;;0.00;0.00;;;;;;;16.14;100.00;100939.78;4989275;28;20038;-65
2023/09/15 03:44:22;;;;;;;0.00;0.00;;;;;;;16.15;100.00;100936.16;4986118;28;20042;-65
2023/09/15 03:46:48;;;;;;;0.25;0.10;;;;;;;16.12;100.00;100934.69;4989556;28;20034;-65
2023/09/15 03:49:14;;;;;;;0.00;0.00;;;;;;;16.01;100.00;100931.63;4986387;28;20373;-65
2023/09/15 03:51:40;;;;;;;0.00;0.00;;;;;;;16.08;100.00;100920.25;4987697;28;20336;-65
2023/09/15 03:54:05;;;;;;;0.17;0.00;;;;;;;16.22;100.00;100926.63;4985023;28;20033;-65
2023/09/15 03:56:32;;;;;;;0.20;0.00;;;;;;;16.30;100.00;100931.03;4986706;28;20035;-65
2023/09/15 03:58:58;;;;;;;0.10;0.00;;;;;;;16.29;100.00;100926.75;4987877;28;20034;-65
2023/09/15 04:01:24;;;;;;;0.10;0.00;;;;;;;16.27;100.00;100926.94;4987317;28;20391;-65
2023/09/15 04:03:50;;;;;;;0.10;0.00;;;;;;;16.27;100.00;100925.13;4991407;28;20030;-65
2023/09/15 04:06:16;;;;;;;0.30;0.00;;;;;;;16.27;100.00;100922.50;4990481;28;20085;-65
2023/09/15 04:08:42;;;;;;;0.00;0.00;;;;;;;16.24;100.00;100919.38;4988690;28;20033;-65
2023/09/15 04:11:07;;;;;;;0.00;0.00;;;;;;;16.09;100.00;100918.44;4991574;28;20404;-65
2023/09/15 04:13:33;;;;;;;0.00;0.00;;;;;;;16.12;100.00;100920.72;4986497;28;20026;-65
2023/09/15 04:16:00;;;;;;;0.00;0.00;;;;;;;16.14;100.00;100919.56;4993375;28;20030;-65
2023/09/15 04:18:26;;;;;;;0.03;0.00;;;;;;;16.17;100.00;100921.03;4992074;28;20041;-65
2023/09/15 04:20:51;;;;;;;0.00;0.00;;;;;;;16.18;100.00;100926.13;4989933;28;20030;-65
2023/09/15 04:23:17;;;;;;;0.00;0.00;;;;;;;16.17;100.00;100923.66;4985386;28;20058;-65
2023/09/15 04:25:43;;;;;;;0.10;0.00;;;;;;;15.99;100.00;100923.09;4992082;28;20029;-65
2023/09/15 04:28:08;;;;;;;0.45;0.00;;;;;;;16.00;100.00;100922.09;4988938;28;20031;-65
2023/09/15 04:30:34;;;;;;;0.00;0.00;;;;;;;16.05;100.00;100923.25;4990501;28;20118;-65
2023/09/15 04:32:59;;;;;;;0.10;0.00;;;;;;;16.06;100.00;100926.69;4987197;28;20030;-65
2023/09/15 04:35:27;;;;;;;0.00;0.00;;;;;;;16.07;100.00;100913.34;4988211;28;20034;-67
2023/09/15 04:37:52;;;;;;;0.00;0.00;;;;;;;16.05;100.00;100917.16;4986728;28;20034;-67
2023/09/15 04:40:18;;;;;;;0.00;0.00;;;;;;;16.04;100.00;100918.16;4988266;28;20407;-67
2023/09/15 04:42:44;;;;;;;0.00;0.00;;;;;;;16.06;100.00;100914.38;4989462;28;20391;-67
2023/09/15 04:45:10;;;;;;;0.00;0.00;;;;;;;16.04;100.00;100913.72;4989627;28;20130;-67
2023/09/15 04:47:37;;;;;;;0.00;0.00;;;;;;;16.03;100.00;100924.41;4990325;28;20077;-67
2023/09/15 04:50:02;;;;;;;0.43;0.00;;;;;;;16.02;100.00;100914.88;4990538;28;20038;-67
2023/09/15 04:52:28;;;;;;;0.00;0.00;;;;;;;15.97;100.00;100915.38;4989497;28;20038;-67
2023/09/15 04:54:55;;;;;;;0.52;0.00;;;;;;;15.96;100.00;100912.91;4991126;28;20030;-66
2023/09/15 04:57:21;;;;;;;0.20;0.10;;;;;;;15.98;100.00;100909.13;4988334;28;20034;-67
2023/09/15 04:59:47;;;;;;;0.00;0.00;;;;;;;15.89;100.00;100921.47;4986814;28;20049;-66
2023/09/15 05:02:13;;;;;;;0.10;0.00;;;;;;;15.89;100.00;100920.66;4990870;28;20040;-68
2023/09/15 05:04:39;;;;;;;0.08;0.00;;;;;;;15.88;100.00;100919.84;4991244;28;20049;-67
2023/09/15 05:07:05;;;;;;;0.00;0.00;;;;;;;15.92;100.00;100912.44;4991877;28;20443;-67
2023/09/15 05:09:30;;;;;;;0.00;0.00;;;;;;;15.83;100.00;100911.63;4991670;28;20034;-67
2023/09/15 05:11:56;;;;;;;0.38;0.08;;;;;;;15.92;100.00;100915.06;4992058;28;20038;-68
2023/09/15 05:14:22;;;;;;;0.00;0.00;;;;;;;15.95;100.00;100919.97;4988727;28;20109;-67
2023/09/15 05:16:48;;;;;;;0.00;0.00;;;;;;;15.83;100.00;100910.81;4991913;28;20053;-67
2023/09/15 05:19:13;;;;;;;0.00;0.00;;;;;;;15.92;100.00;100915.06;4988491;28;20037;-69
2023/09/15 05:21:39;;;;;;;0.00;0.00;;;;;;;15.96;100.00;100920.81;4987064;28;20547;-69
2023/09/15 05:24:05;;;;;;;0.00;0.00;;;;;;;15.95;100.00;100916.53;4989108;28;20113;-70
2023/09/15 05:26:30;;;;;;;0.00;0.00;;;;;;;16.02;100.00;100917.50;4990890;28;20183;-69
2023/09/15 05:28:55;;;;;;;0.03;0.00;;;;;;;16.06;100.00;100917.00;4990780;28;20112;-67
2023/09/15 05:31:25;;;;;;;0.28;0.00;;;;;;;16.09;100.00;100921.88;4984080;28;20045;-67
2023/09/15 05:33:52;;;;;;;0.00;0.00;;;;;;;16.15;100.00;100921.22;4990987;28;20030;-68
2023/09/15 05:36:17;;;;;;;0.00;0.00;;;;;;;16.22;100.00;100926.63;4987757;28;20030;-66
2023/09/15 05:38:43;;;;;;;0.00;0.00;;;;;;;16.25;100.00;100929.72;4986724;28;20037;-68
2023/09/15 05:41:08;;;;;;;0.00;0.00;;;;;;;16.25;100.00;100932.34;4994121;28;20065;-68
2023/09/15 05:43:34;;;;;;;0.00;0.00;;;;;;;16.25;100.00;100934.97;4987158;28;20031;-68
2023/09/15 05:45:59;;;;;;;0.00;0.00;;;;;;;16.35;100.00;100933.97;4985567;28;20400;-68
2023/09/15 05:48:25;;;;;;;0.00;0.00;;;;;;;16.42;100.00;100935.75;4986070;28;20045;-68
2023/09/15 05:50:50;;;;;;;0.57;0.00;;;;;;;16.51;100.00;100939.16;4989418;28;20089;-69
2023/09/15 05:53:16;;;;;;;0.40;0.00;;;;;;;16.50;100.00;100940.16;4991222;28;20026;-68
2023/09/15 05:55:41;;;;;;;0.00;0.00;;;;;;;16.60;100.00;100941.56;4988521;28;20049;-68
2023/09/15 05:58:06;;;;;;;0.00;0.00;;;;;;;16.67;100.00;100949.63;4989832;28;20022;-68
2023/09/15 06:00:32;;;;;;;0.30;0.00;;;;;;;16.74;100.00;100940.06;4988880;28;20025;-68
2023/09/15 06:02:58;;;;;;;0.10;0.00;;;;;;;16.79;100.00;100945.63;4993816;28;20411;-68
2023/09/15 06:05:25;;;;;;;0.35;0.20;;;;;;;16.87;100.00;100958.72;4984832;28;20153;-68
2023/09/15 06:07:51;;;;;;;0.00;0.00;;;;;;;16.96;100.00;100953.41;4983979;28;20030;-68
2023/09/15 06:10:16;;;;;;;0.28;0.03;;;;;;;17.04;100.00;100950.72;4981327;28;20571;-68
2023/09/15 06:12:43;;;;;;;0.17;0.10;;;;;;;17.09;100.00;100953.66;4984174;28;20040;-63
2023/09/15 06:15:09;;;;;;;0.00;0.00;;;;;;;17.15;100.00;100953.75;4985189;28;20049;-63
2023/09/15 06:17:34;;;;;;;0.00;0.00;;;;;;;17.21;100.00;100965.41;4983772;28;20083;-63
2023/09/15 06:20:00;;;;;;;0.10;0.00;;;;;;;17.20;100.00;100959.31;4984911;28;20030;-63
2023/09/15 06:22:26;;;;;;;0.00;0.00;;;;;;;17.21;100.00;100960.97;4984520;28;20408;-63
2023/09/15 06:24:51;;;;;;;0.10;0.00;;;;;;;17.27;100.00;100963.91;4984174;28;20053;-63
2023/09/15 06:27:17;;;;;;;0.00;0.00;;;;;;;17.45;100.00;100965.25;4999594;28;20095;-64
2023/09/15 06:29:43;;;;;;;0.00;0.00;;;;;;;17.53;100.00;100973.06;4986684;28;20045;-64
2023/09/15 06:32:08;;;;;;;1.85;0.28;;;;;;;17.64;100.00;100978.91;4989787;28;20053;-64
2023/09/15 06:34:34;;;;;;;0.00;0.00;;;;;;;17.69;100.00;100972.13;4983506;28;20034;-64
2023/09/15 06:37:01;;;;;;;0.10;0.00;;;;;;;17.81;100.00;100983.06;4991625;28;20026;-64
2023/09/15 06:39:27;;;;;;;0.30;0.10;;;;;;;17.82;100.00;100982.88;4995534;28;20038;-64
2023/09/15 06:41:53;;;;;;;0.05;0.00;;;;;;;17.84;100.00;100985.34;4989358;28;20080;-64
2023/09/15 06:44:19;;;;;;;0.10;0.00;;;;;;;17.84;100.00;100982.72;4983965;28;20108;-64
2023/09/15 06:46:45;;;;;;;0.10;0.00;;;;;;;17.86;100.00;100986.81;4989678;28;20030;-64
2023/09/15 06:49:11;;;;;;;0.10;0.00;;;;;;;17.96;100.00;100991.78;4989922;28;20049;-64
2023/09/15 06:51:36;;;;;;;0.82;0.17;;;;;;;18.02;100.00;100985.81;4989008;28;20542;-64
2023/09/15 06:54:02;;;;;;;0.10;0.00;;;;;;;17.98;100.00;100996.88;4987885;28;20034;-64
2023/09/15 06:56:27;;;;;;;0.00;0.00;;;;;;;18.00;100.00;100990.44;4987963;28;20030;-64
2023/09/15 06:58:53;;;;;;;0.13;0.00;;;;;;;18.10;100.00;100990.19;4987487;28;20030;-64
2023/09/15 07:01:19;;;;;;;0.00;0.00;;;;;;;18.16;100.00;100985.00;4987365;28;20026;-64
2023/09/15 07:03:45;;;;;;;0.20;0.00;;;;;;;18.15;100.00;100986.00;4986550;28;20488;-64
2023/09/15 07:06:10;;;;;;;0.03;0.00;;;;;;;18.23;100.00;100980.66;4987031;28;20045;-65
2023/09/15 07:08:36;;;;;;;0.15;0.00;;;;;;;18.45;100.00;100986.00;4986085;28;20495;-65
2023/09/15 07:11:02;;;;;;;0.17;0.08;;;;;;;18.61;100.00;100983.19;4987103;28;20034;-65
2023/09/15 07:13:27;;;;;;;0.00;0.00;;;;;;;18.74;100.00;100988.63;4987421;28;20384;-65
2023/09/15 07:15:53;;;;;;;0.38;0.00;;;;;;;18.89;100.00;100983.34;4986425;28;20030;-65
2023/09/15 07:18:18;;;;;;;0.00;0.00;;;;;;;19.06;100.00;100974.16;4987942;28;20034;-65
2023/09/15 07:20:43;;;;;;;0.00;0.00;;;;;;;18.92;100.00;100979.47;4985993;28;20026;-65
2023/09/15 07:23:09;;;;;;;0.20;0.00;;;;;;;18.83;100.00;100976.97;4985419;28;20045;-65
2023/09/15 07:25:35;;;;;;;0.13;0.00;;;;;;;18.86;100.00;100973.97;4989334;28;20030;-65
2023/09/15 07:28:00;;;;;;;0.10;0.00;;;;;;;18.97;100.00;100969.16;4988675;28;20049;-66
2023/09/15 07:30:26;;;;;;;0.08;0.00;;;;;;;19.19;100.00;100974.28;4983121;28;20626;-64
2023/09/15 07:32:51;;;;;;;0.08;0.00;;;;;;;19.34;100.00;100982.16;4987322;28;20038;-64
2023/09/15 07:35:17;;;;;;;0.47;0.10;;;;;;;19.35;100.00;100983.81;4991375;28;20030;-65
2023/09/15 07:37:42;;;;;;;0.00;0.00;;;;;;;19.44;100.00;100982.63;4991963;28;20050;-65
2023/09/15 07:40:08;;;;;;;0.00;0.00;;;;;;;19.49;100.00;100979.44;4994338;28;20808;-65
2023/09/15 07:42:35;;;;;;;0.15;0.00;;;;;;;19.58;100.00;100969.56;4989229;28;20030;-65
2023/09/15 07:45:01;;;;;;;0.00;0.00;;;;;;;19.58;100.00;100974.88;4988690;28;20035;-65
2023/09/15 07:47:26;;;;;;;0.20;0.20;;;;;;;19.48;100.00;100968.03;4990649;28;20037;-65
2023/09/15 07:49:52;;;;;;;0.20;0.00;;;;;;;19.69;100.00;100961.94;4992143;28;20031;-65
2023/09/15 07:52:18;;;;;;;0.10;0.00;;;;;;;19.83;100.00;100968.16;4990292;28;20030;-65
2023/09/15 07:54:44;;;;;;;0.05;0.00;;;;;;;19.90;100.00;100966.34;4992888;28;20140;-65
2023/09/15 07:57:10;;;;;;;0.10;0.00;;;;;;;19.95;100.00;100969.22;4993569;28;20419;-65
2023/09/15 07:59:35;;;;;;;0.10;0.00;;;;;;;19.89;100.00;100977.94;4992131;28;20030;-65
2023/09/15 08:02:01;;;;;;;0.00;0.00;;;;;;;19.80;100.00;100973.81;4988446;28;20030;-65
2023/09/15 08:04:26;;;;;;;0.20;0.20;;;;;;;19.80;100.00;100976.47;4992643;28;20030;-65
2023/09/15 08:06:53;;;;;;;0.10;0.00;;;;;;;19.70;100.00;100982.09;4991285;28;20407;-65
2023/09/15 08:09:18;;;;;;;0.20;0.00;;;;;;;19.68;100.00;100968.25;4991397;28;20181;-65
2023/09/15 08:11:44;;;;;;;0.20;0.00;;;;;;;19.77;100.00;100979.50;4992724;28;20145;-65
2023/09/15 08:14:09;;;;;;;0.30;0.00;;;;;;;19.81;100.00;100975.47;4995967;28;20460;-65
2023/09/15 08:16:34;;;;;;;0.20;0.10;;;;;;;19.74;100.00;100977.22;4989616;28;20562;-65
2023/09/15 08:19:00;;;;;;;0.00;0.00;;;;;;;19.71;100.00;100977.63;4986609;28;20030;-65
2023/09/15 08:21:26;;;;;;;0.00;0.00;;;;;;;19.67;100.00;100971.91;4989686;28;20407;-65
2023/09/15 08:23:52;;;;;;;0.15;0.00;;;;;;;19.58;100.00;100980.97;4990735;28;20038;-65
2023/09/15 08:26:17;;;;;;;0.20;0.08;;;;;;;19.44;100.00;100982.63;4989684;28;20035;-64
2023/09/15 08:28:43;;;;;;;0.22;0.00;;;;;;;19.39;100.00;100990.31;4991860;28;20034;-64
2023/09/15 08:31:11;;;;;;;0.10;0.00;;;;;;;19.32;100.00;101000.03;4992559;28;20034;-64
2023/09/15 08:33:37;;;;;;;0.00;0.00;;;;;;;19.28;100.00;100996.13;4991247;28;20136;-64
2023/09/15 08:36:03;;;;;;;0.15;0.10;;;;;;;19.20;100.00;100996.25;4991197;28;20053;-64
2023/09/15 08:38:31;;;;;;;0.00;0.00;;;;;;;19.24;100.00;100994.88;4984158;28;20491;-64
2023/09/15 08:41:03;;;;;;;0.15;0.05;;;;;;;19.13;100.00;101000.63;4991372;28;20038;-64
2023/09/15 08:43:29;;;;;;;0.00;0.00;;;;;;;19.14;100.00;101005.72;4990178;28;20026;-64
2023/09/15 08:45:55;;;;;;;0.17;0.00;;;;;;;19.04;100.00;101005.22;4996860;28;20056;-64
2023/09/15 08:48:27;;;;;;;0.10;0.00;;;;;;;18.93;100.00;101005.69;4989000;28;20460;-64
2023/09/15 08:50:54;;;;;;;0.10;0.00;;;;;;;18.84;100.00;101007.66;4989356;28;20472;-64
2023/09/15 08:53:21;;;;;;;0.05;0.00;;;;;;;18.88;100.00;101001.00;4991790;28;20034;-63
2023/09/15 08:55:47;;;;;;;0.20;0.10;;;;;;;18.80;100.00;101005.56;4992275;28;20118;-63
2023/09/15 08:58:13;;;;;;;0.32;0.10;;;;;;;18.85;100.00;100996.09;4989284;28;20034;-64
2023/09/15 09:00:39;;;;;;;0.28;0.00;;;;;;;18.88;100.00;101003.63;4990053;28;20500;-63
2023/09/15 09:03:04;;;;;;;0.00;0.00;;;;;;;18.87;100.00;100999.34;4991212;28;20034;-63
2023/09/15 09:05:31;;;;;;;0.20;0.00;;;;;;;18.99;100.00;100999.66;4992597;28;20058;-63
2023/09/15 09:07:59;;;;;;;0.10;0.00;;;;;;;19.14;100.00;101007.56;4991385;28;20027;-63
2023/09/15 09:10:25;;;;;;;0.00;0.00;;;;;;;19.28;100.00;101009.34;4996510;28;20068;-63
2023/09/15 09:12:51;;;;;;;0.10;0.00;;;;;;;19.32;100.00;101015.06;4995990;28;20065;-63
2023/09/15 09:15:17;;;;;;;0.00;0.00;;;;;;;19.41;100.00;101013.91;4991889;28;20034;-63
2023/09/15 09:17:43;;;;;;;0.00;0.00;;;;;;;19.37;100.00;101010.84;4991631;28;20026;-63
2023/09/15 09:20:23;;;;;;;0.10;0.00;;;;;;;19.48;100.00;101012.97;4990951;28;20034;-63
2023/09/15 09:22:48;;;;;;;0.10;0.00;;;;;;;19.63;100.00;101014.75;4990805;28;20054;-63
2023/09/15 09:25:14;;;;;;;0.20;0.00;;;;;;;19.63;100.00;101020.03;4991275;28;20026;-63
2023/09/15 09:27:39;;;;;;;0.00;0.00;;;;;;;19.52;100.00;101019.53;4999219;28;20034;-63
2023/09/15 09:30:05;;;;;;;0.00;0.00;;;;;;;19.58;100.00;101020.59;4991254;28;20452;-63
2023/09/15 09:32:31;;;;;;;0.20;0.00;;;;;;;19.55;100.00;101021.81;4988147;28;20129;-63
2023/09/15 09:34:56;;;;;;;0.10;0.00;;;;;;;19.52;100.00;101016.91;4985910;28;20038;-63
2023/09/15 09:37:26;;;;;;;0.20;0.00;;;;;;;19.48;100.00;101031.47;4990293;28;20092;-63
2023/09/15 09:39:53;;;;;;;0.08;0.00;;;;;;;19.55;100.00;101028.91;4988437;28;20236;-63
2023/09/15 09:42:21;;;;;;;0.10;0.00;;;;;;;19.64;100.00;101026.97;4986157;28;20040;-63
2023/09/15 09:44:47;;;;;;;0.00;0.00;;;;;;;19.56;100.00;101030.56;4988853;28;20065;-63
2023/09/15 09:47:12;;;;;;;0.00;0.00;;;;;;;19.72;100.00;101027.66;4983682;28;20050;-63
2023/09/15 09:49:40;;;;;;;0.00;0.00;;;;;;;19.86;100.00;101020.63;4985340;28;20130;-63
2023/09/15 09:52:05;;;;;;;0.00;0.00;;;;;;;19.85;100.00;101026.91;4985770;28;20411;-63
2023/09/15 09:54:34;;;;;;;0.10;0.00;;;;;;;19.53;100.00;101028.28;4987974;28;20035;-63
2023/09/15 09:57:01;;;;;;;0.05;0.00;;;;;;;19.38;100.00;101030.94;4988040;28;20034;-63
2023/09/15 09:59:28;;;;;;;0.00;0.00;;;;;;;19.32;100.00;101029.09;4985328;28;20041;-63
2023/09/15 10:01:53;;;;;;;0.20;0.00;;;;;;;19.39;100.00;101026.47;4982670;28;20450;-63
2023/09/15 10:04:21;;;;;;;0.10;0.00;;;;;;;19.57;100.00;101023.44;4981105;28;20061;-63
2023/09/15 10:06:47;;;;;;;0.00;0.00;;;;;;;19.65;100.00;101024.13;4986636;28;20038;-63
2023/09/15 10:09:14;;;;;;;0.22;0.00;;;;;;;19.84;100.00;101017.38;4984299;28;20034;-63
2023/09/15 10:11:39;;;;;;;0.00;0.00;;;;;;;19.92;100.00;101011.09;4986771;28;20530;-63
2023/09/15 10:14:06;;;;;;;0.17;0.00;;;;;;;19.83;100.00;101018.41;4984186;28;20026;-63
2023/09/15 10:16:33;;;;;;;0.20;0.00;;;;;;;19.87;100.00;101012.50;4985793;28;20030;-64
2023/09/15 10:19:02;;;;;;;0.10;0.00;;;;;;;20.01;100.00;101015.25;4991203;28;20109;-63
2023/09/15 10:21:28;;;;;;;0.00;0.00;;;;;;;19.91;100.00;101010.28;4984755;28;20073;-64
2023/09/15 10:24:12;;;;;;;0.00;0.00;;;;;;;19.86;100.00;101007.41;4993489;28;20168;-63
2023/09/15 10:26:44;;;;;;;0.00;0.00;;;;;;;19.84;100.00;101010.28;4982861;28;20033;-64
2023/09/15 10:29:13;;;;;;;0.00;0.00;;;;;;;19.98;100.00;101005.88;4989262;28;20061;-64
2023/09/15 10:31:45;;;;;;;0.17;0.00;;;;;;;20.11;100.00;101011.25;4985796;28;20508;-63
2023/09/15 10:34:11;;;;;;;0.75;0.03;;;;;;;20.30;100.00;101004.47;4988628;28;20050;-63
2023/09/15 10:36:40;;;;;;;0.10;0.00;;;;;;;20.40;100.00;101002.28;4985929;28;20034;-64
2023/09/15 10:39:14;;;;;;;0.10;0.00;;;;;;;20.40;100.00;101004.13;4987463;28;20470;-63
2023/09/15 10:41:39;;;;;;;0.20;0.00;;;;;;;20.41;100.00;101006.56;4989026;28;20022;-64
2023/09/15 10:44:05;;;;;;;0.08;0.00;;;;;;;20.26;100.00;101000.56;4984207;28;20153;-64
2023/09/15 10:46:40;;;;;;;0.10;0.00;;;;;;;20.19;100.00;101005.00;4977758;28;20764;-64
2023/09/15 10:49:13;;;;;;;0.40;0.00;;;;;;;20.11;100.00;101008.63;4984760;28;20030;-64
2023/09/15 10:51:57;;;;;;;0.70;0.00;;;;;;;19.93;100.00;100996.88;4988900;28;20468;-64
2023/09/15 10:54:34;;;;;;;0.00;0.00;;;;;;;20.01;100.00;101000.19;4985131;28;20034;-64
2023/09/15 10:57:01;;;;;;;1.48;0.03;;;;;;;19.95;100.00;100994.84;4988626;28;20121;-64
2023/09/15 10:59:27;;;;;;;0.10;0.00;;;;;;;20.00;100.00;100993.28;4985386;28;20038;-64
2023/09/15 11:01:53;;;;;;;0.10;0.00;;;;;;;19.96;100.00;100994.66;4988413;28;20080;-64
2023/09/15 11:04:22;;;;;;;0.00;0.00;;;;;;;20.03;100.00;100987.59;4987700;28;20104;-64
2023/09/15 11:06:50;;;;;;;0.00;0.00;;;;;;;19.99;100.00;100991.63;4995721;28;20031;-64
2023/09/15 11:09:16;;;;;;;0.00;0.00;;;;;;;20.07;100.00;100988.84;4985912;28;20038;-64
2023/09/15 11:11:46;;;;;;;0.00;0.00;;;;;;;20.16;100.00;100981.59;4991338;28;20376;-64
2023/09/15 11:14:20;;;;;;;0.00;0.00;;;;;;;20.33;100.00;100969.66;4989134;28;20034;-64